KBYG/BYG METAR and TAF weather

Enter ICAO airport designator
Station Type Date Time Source
KBYG METAR 2020/07/15 03:53 UTC NOAA

KBYG 150353Z AUTO 31005KT 10SM CLR 17/02 A3014 RMK AO2 SLP160 T01720017


Station Type Date Time Source
KBYG Decoded METAR 2020/07/15 03:53 UTC NOAA

BUFFALO JOHNSON COUNTY AIRPORT , WY, United States (KBYG) 44-23N 106-43W 1497M
Jul 14, 2020 - 11:53 PM EDT / 2020.07.15 0353 UTC
Wind: from the NW (310 degrees) at 6 MPH (5 KT):0
Visibility: 10 mile(s):0
Sky conditions: clear
Temperature: 63.0 F (17.2 C)
Dew Point: 35.1 F (1.7 C)
Relative Humidity: 35%
Pressure (altimeter): 30.14 in. Hg (1020 hPa)
ob: KBYG 150353Z AUTO 31005KT 10SM CLR 17/02 A3014 RMK AO2 SLP160 T01720017
cycle: 4

Station Type Date Time Source
KBYG TAF UTC NOAA

Error!

Example: see airport list